Time;durP1;ratioP1;P1;durP2;ratioP2;P2;SDS_P1;SDS_P2;PMS_P1;PMS_P2;Temp;Humidity;BMP_temperature;BMP_pressure;BME280_temperature;BME280_humidity;BME280_pressure;Samples;Min_cycle;Max_cycle;Signal;HPM_P1;HPM_P2
2022/12/27 00:01:59;;;;;;;4.40;4.10;;;11.10;99.90;;;;;;4224583;28;20078;-84
2022/12/27 00:04:19;;;;;;;7.32;6.47;;;11.10;99.90;;;;;;4228571;28;20066;-83
2022/12/27 00:06:40;;;;;;;5.82;5.05;;;11.10;99.90;;;;;;4225650;28;20055;-84
2022/12/27 00:09:00;;;;;;;4.63;4.53;;;11.10;99.90;;;;;;4215499;28;20047;-84
2022/12/27 00:11:23;;;;;;;5.03;4.72;;;11.10;99.90;;;;;;4233328;28;20105;-84
2022/12/27 00:13:43;;;;;;;5.57;5.10;;;11.20;99.90;;;;;;4230019;28;20079;-83
2022/12/27 00:16:09;;;;;;;5.18;4.88;;;11.10;99.90;;;;;;4227530;28;20088;-84
2022/12/27 00:18:29;;;;;;;6.03;5.55;;;11.20;99.90;;;;;;4222210;28;20051;-84
2022/12/27 00:20:55;;;;;;;5.72;5.32;;;11.10;99.90;;;;;;4224311;28;20082;-84
2022/12/27 00:23:15;;;;;;;5.55;5.35;;;11.10;99.90;;;;;;4234020;28;20074;-84
2022/12/27 00:25:35;;;;;;;6.50;5.93;;;11.10;99.90;;;;;;4230489;28;20050;-84
2022/12/27 00:27:54;;;;;;;6.15;5.80;;;11.00;99.90;;;;;;4239033;28;20082;-84
2022/12/27 00:30:14;;;;;;;6.00;5.55;;;11.10;99.90;;;;;;4231435;28;20109;-84
2022/12/27 00:32:34;;;;;;;8.75;6.07;;;11.00;99.90;;;;;;4233784;28;20104;-84
2022/12/27 00:34:54;;;;;;;5.15;4.78;;;11.00;99.90;;;;;;4229474;28;20043;-84
2022/12/27 00:37:14;;;;;;;5.75;5.38;;;11.00;99.90;;;;;;4226435;28;20140;-84
2022/12/27 00:39:34;;;;;;;5.38;5.05;;;11.00;99.90;;;;;;4231623;28;20080;-83
2022/12/27 00:41:54;;;;;;;8.23;6.97;;;11.00;99.90;;;;;;4234379;28;20070;-84
2022/12/27 00:44:14;;;;;;;6.57;6.00;;;10.90;99.90;;;;;;4214829;28;20039;-84
2022/12/27 00:46:33;;;;;;;5.18;4.68;;;10.90;99.90;;;;;;4223012;28;20116;-84
2022/12/27 00:48:54;;;;;;;5.32;5.07;;;10.90;99.90;;;;;;4223510;28;20070;-84
2022/12/27 00:51:16;;;;;;;6.78;6.38;;;10.90;99.90;;;;;;4235772;28;20243;-84
2022/12/27 00:53:36;;;;;;;5.80;5.40;;;10.80;99.90;;;;;;4219779;28;20082;-84
2022/12/27 00:55:57;;;;;;;3.97;3.80;;;10.80;99.90;;;;;;4230627;28;20043;-84
2022/12/27 00:58:17;;;;;;;4.65;4.43;;;10.80;99.90;;;;;;4213509;28;20449;-84
2022/12/27 01:00:37;;;;;;;4.25;3.88;;;10.80;99.90;;;;;;4215392;28;20074;-84
2022/12/27 01:02:57;;;;;;;5.00;4.68;;;10.90;99.90;;;;;;4229368;28;20043;-84
2022/12/27 01:05:17;;;;;;;5.03;4.47;;;10.90;99.90;;;;;;4223881;28;20047;-84
2022/12/27 01:07:37;;;;;;;3.95;3.85;;;10.90;99.90;;;;;;4234493;28;20255;-84
2022/12/27 01:09:57;;;;;;;4.93;4.72;;;10.90;99.90;;;;;;4227234;28;20042;-84
2022/12/27 01:12:17;;;;;;;4.68;4.28;;;10.90;99.90;;;;;;4210610;28;20055;-84
2022/12/27 01:14:37;;;;;;;6.40;5.88;;;11.00;99.90;;;;;;4212627;28;20090;-84
2022/12/27 01:16:57;;;;;;;5.85;5.10;;;11.00;99.90;;;;;;4230962;28;20047;-84
2022/12/27 01:19:17;;;;;;;6.95;6.35;;;11.00;99.90;;;;;;4233996;28;20043;-84
2022/12/27 01:21:37;;;;;;;5.55;5.35;;;11.10;99.90;;;;;;4223775;28;20289;-84
2022/12/27 01:23:58;;;;;;;6.05;5.53;;;11.00;99.90;;;;;;4229760;28;20043;-83
2022/12/27 01:26:20;;;;;;;4.55;4.35;;;11.00;99.90;;;;;;4223906;28;20051;-84
2022/12/27 01:28:40;;;;;;;4.68;4.38;;;11.00;99.90;;;;;;4223495;28;20083;-84
2022/12/27 01:31:09;;;;;;;4.60;4.38;;;11.00;99.90;;;;;;4213246;28;20069;-84
2022/12/27 01:33:29;;;;;;;4.22;4.05;;;11.00;99.90;;;;;;4225759;28;20138;-84
2022/12/27 01:35:49;;;;;;;3.60;3.50;;;11.00;99.90;;;;;;4223767;28;20238;-84
2022/12/27 01:38:10;;;;;;;4.82;4.40;;;11.10;99.90;;;;;;4227056;28;20047;-83
2022/12/27 01:40:30;;;;;;;5.00;4.70;;;11.10;99.90;;;;;;4230329;28;20089;-84
2022/12/27 01:42:54;;;;;;;5.60;3.88;;;11.10;99.90;;;;;;4230374;28;20078;-84
2022/12/27 01:45:17;;;;;;;4.57;4.40;;;11.30;99.90;;;;;;4232692;28;20050;-84
2022/12/27 01:47:45;;;;;;;4.40;4.13;;;11.30;99.90;;;;;;4235030;28;20105;-84
2022/12/27 01:50:25;;;;;;;7.15;5.95;;;11.30;99.90;;;;;;4213718;28;20052;-84
2022/12/27 01:53:00;;;;;;;5.88;4.60;;;11.20;99.90;;;;;;4216934;28;20075;-84
2022/12/27 01:55:24;;;;;;;5.03;4.47;;;11.20;99.90;;;;;;4214724;28;20047;-84
2022/12/27 01:57:45;;;;;;;5.28;4.72;;;11.20;99.90;;;;;;4221991;28;20066;-84
2022/12/27 02:00:06;;;;;;;4.85;4.57;;;11.20;99.90;;;;;;4216316;28;20106;-84
2022/12/27 02:02:25;;;;;;;9.38;5.47;;;11.20;99.90;;;;;;4216992;28;20048;-84
2022/12/27 02:04:46;;;;;;;4.75;4.55;;;11.20;99.90;;;;;;4222773;28;20046;-84
2022/12/27 02:07:06;;;;;;;4.88;4.68;;;11.20;99.90;;;;;;4231722;28;20089;-83
2022/12/27 02:09:41;;;;;;;5.38;5.15;;;11.20;99.90;;;;;;4229722;28;20089;-83
2022/12/27 02:12:05;;;;;;;4.95;4.68;;;11.10;99.90;;;;;;4229218;28;20431;-84
2022/12/27 02:14:38;;;;;;;5.03;4.57;;;11.10;99.90;;;;;;4214802;28;20060;-83
2022/12/27 02:17:32;;;;;;;4.00;3.83;;;11.10;99.90;;;;;;4219587;28;20047;-84
2022/12/27 02:20:07;;;;;;;5.18;4.88;;;11.20;99.90;;;;;;4208925;28;20051;-84
2022/12/27 02:26:32;;;;;;;4.85;4.28;;;11.00;99.90;;;;;;4245690;28;20051;-84
2022/12/27 02:29:06;;;;;;;7.95;5.05;;;10.90;99.90;;;;;;4235285;28;20065;-84
2022/12/27 02:32:05;;;;;;;3.75;3.65;;;11.00;99.90;;;;;;4233814;28;20362;-83
2022/12/27 02:34:37;;;;;;;5.50;4.93;;;11.00;99.90;;;;;;4187634;28;20056;-84
2022/12/27 02:37:03;;;;;;;6.95;5.75;;;11.00;99.90;;;;;;4229096;28;20239;-84
2022/12/27 02:39:25;;;;;;;6.32;5.82;;;11.00;99.90;;;;;;4226297;28;20107;-84
2022/12/27 02:53:08;;;;;;;5.45;5.15;;;10.80;99.90;;;;;;4235059;28;20055;-84
2022/12/27 02:58:54;;;;;;;8.65;6.60;;;10.90;99.90;;;;;;4232804;28;20046;-83
2022/12/27 03:04:19;;;;;;;;;;;11.00;99.90;;;;;;4231620;28;20054;-84
2022/12/27 03:07:17;;;;;;;5.80;5.50;;;11.00;99.90;;;;;;4231627;28;19921;-84
2022/12/27 03:15:56;;;;;;;5.60;5.18;;;11.10;99.90;;;;;;4226232;28;20101;-84
2022/12/27 03:18:38;;;;;;;10.00;6.90;;;11.00;99.90;;;;;;4232187;28;20269;-84
2022/12/27 03:26:23;;;;;;;5.75;5.55;;;10.90;99.90;;;;;;4226718;28;20235;-84
2022/12/27 03:34:31;;;;;;;6.53;6.22;;;10.80;99.90;;;;;;4227915;28;20407;-83
2022/12/27 03:39:37;;;;;;;7.22;6.75;;;10.80;99.90;;;;;;4229076;28;20065;-84
2022/12/27 03:44:43;;;;;;;7.18;6.88;;;10.90;99.90;;;;;;4230921;28;20047;-84
2022/12/27 03:47:42;;;;;;;6.82;6.22;;;10.90;99.90;;;;;;4231635;28;20154;-84
2022/12/27 03:50:08;;;;;;;6.25;5.90;;;11.00;99.90;;;;;;4234181;28;20093;-84
2022/12/27 03:52:52;;;;;;;8.32;6.18;;;11.00;99.90;;;;;;4217157;28;20416;-84
2022/12/27 03:55:13;;;;;;;7.07;6.80;;;10.90;99.90;;;;;;4231846;28;20135;-84
2022/12/27 03:57:33;;;;;;;6.82;6.53;;;10.90;99.90;;;;;;4234210;28;20074;-83
2022/12/27 03:59:53;;;;;;;7.60;7.00;;;10.90;99.90;;;;;;4229383;28;20050;-83
2022/12/27 04:02:14;;;;;;;7.47;6.93;;;10.90;99.90;;;;;;4224829;28;20093;-84
2022/12/27 04:04:34;;;;;;;8.02;7.25;;;10.90;99.90;;;;;;4211063;28;20342;-84
2022/12/27 04:06:54;;;;;;;7.22;6.85;;;10.90;99.90;;;;;;4233120;28;20077;-84
2022/12/27 04:35:39;;;;;;;8.80;7.97;;;10.80;99.90;;;;;;4227640;28;20051;-84
2022/12/27 04:37:59;;;;;;;10.18;9.25;;;10.80;99.90;;;;;;4227492;28;20289;-84
2022/12/27 04:56:10;;;;;;;9.43;8.65;;;10.70;99.90;;;;;;4233557;28;20290;-84
2022/12/27 04:58:31;;;;;;;7.22;6.60;;;10.70;99.90;;;;;;4216288;28;20081;-83
2022/12/27 05:03:39;;;;;;;8.27;7.82;;;10.70;99.90;;;;;;4228857;28;20081;-84
2022/12/27 05:06:00;;;;;;;9.30;8.35;;;10.70;99.90;;;;;;4223636;28;20067;-83
2022/12/27 05:16:18;;;;;;;7.60;7.20;;;10.70;99.90;;;;;;4229110;28;20404;-84
2022/12/27 05:18:38;;;;;;;8.15;7.80;;;10.80;99.90;;;;;;4227929;28;20076;-84
2022/12/27 05:21:05;;;;;;;8.60;8.20;;;10.70;99.90;;;;;;4232441;28;20050;-84
2022/12/27 05:26:04;;;;;;;8.38;7.90;;;10.70;99.90;;;;;;4227304;28;20265;-83
2022/12/27 05:28:24;;;;;;;9.32;8.13;;;10.70;99.90;;;;;;4226155;28;20392;-84
2022/12/27 05:30:45;;;;;;;8.13;7.57;;;10.70;99.90;;;;;;4222286;28;20104;-84
2022/12/27 05:33:05;;;;;;;7.85;7.20;;;10.70;99.90;;;;;;4231827;28;20255;-84
2022/12/27 05:35:26;;;;;;;8.32;7.57;;;10.70;99.90;;;;;;4231636;28;20054;-84
2022/12/27 05:37:45;;;;;;;9.05;8.25;;;10.70;99.90;;;;;;4232439;28;20038;-84
2022/12/27 05:40:14;;;;;;;8.90;8.27;;;10.70;99.90;;;;;;4232961;28;20097;-84
2022/12/27 05:42:33;;;;;;;7.30;7.10;;;10.70;99.90;;;;;;4225805;28;20370;-84
2022/12/27 05:44:53;;;;;;;8.27;7.45;;;10.70;99.90;;;;;;4232843;28;20042;-84
2022/12/27 05:47:13;;;;;;;8.77;8.52;;;10.70;99.90;;;;;;4231915;28;20078;-84
2022/12/27 05:49:33;;;;;;;7.72;7.07;;;10.70;99.90;;;;;;4229554;28;20230;-84
2022/12/27 05:51:53;;;;;;;8.05;7.53;;;10.70;99.90;;;;;;4220831;28;20047;-84
2022/12/27 05:54:13;;;;;;;10.60;7.38;;;10.70;99.90;;;;;;4234380;28;20039;-84
2022/12/27 05:56:36;;;;;;;8.85;8.10;;;10.70;99.90;;;;;;4231061;28;20055;-84
2022/12/27 05:58:56;;;;;;;7.63;6.85;;;10.70;99.90;;;;;;4226410;28;20066;-84
2022/12/27 06:01:16;;;;;;;8.40;7.82;;;10.70;99.90;;;;;;4214949;28;20052;-84
2022/12/27 06:03:37;;;;;;;8.52;7.85;;;10.70;99.90;;;;;;4224775;28;20047;-84
2022/12/27 06:06:02;;;;;;;6.45;6.15;;;10.70;99.90;;;;;;4233923;28;20047;-84
2022/12/27 06:08:22;;;;;;;8.23;7.50;;;10.70;99.90;;;;;;4230413;28;20074;-84
2022/12/27 06:10:42;;;;;;;8.25;7.70;;;10.70;99.90;;;;;;4222242;28;20063;-84
2022/12/27 06:13:03;;;;;;;7.70;7.40;;;10.70;99.90;;;;;;4226526;28;20034;-84
2022/12/27 06:15:23;;;;;;;9.00;8.40;;;10.70;99.90;;;;;;4228169;28;20054;-84
2022/12/27 06:17:43;;;;;;;10.23;9.18;;;10.70;99.90;;;;;;4230849;28;20039;-84
2022/12/27 06:20:02;;;;;;;10.75;9.90;;;10.60;99.90;;;;;;4232834;28;20092;-84
2022/12/27 06:22:23;;;;;;;8.15;7.63;;;10.60;99.90;;;;;;4228097;28;20089;-84
2022/12/27 06:24:42;;;;;;;9.57;8.93;;;10.60;99.90;;;;;;4225441;28;20085;-84
2022/12/27 06:27:05;;;;;;;8.90;8.32;;;10.60;99.90;;;;;;4227700;28;20047;-84
2022/12/27 06:29:24;;;;;;;8.10;7.47;;;10.60;99.90;;;;;;4239763;28;20039;-84
2022/12/27 06:31:45;;;;;;;8.77;8.05;;;10.60;99.90;;;;;;4242342;28;20078;-90
2022/12/27 06:34:05;;;;;;;7.60;7.30;;;10.60;99.90;;;;;;4240777;28;20046;-91
2022/12/27 06:36:28;;;;;;;7.72;7.15;;;10.60;99.90;;;;;;4221834;28;20062;-91
2022/12/27 06:38:48;;;;;;;8.13;7.07;;;10.70;99.90;;;;;;4219178;28;20082;-90
2022/12/27 06:41:11;;;;;;;7.63;7.22;;;10.60;99.90;;;;;;4223280;28;20077;-91
2022/12/27 06:43:32;;;;;;;6.85;6.45;;;10.70;99.90;;;;;;4224108;28;20055;-91
2022/12/27 06:46:00;;;;;;;6.38;6.10;;;10.60;99.90;;;;;;4217237;28;20056;-91
2022/12/27 06:48:20;;;;;;;6.85;6.55;;;10.70;99.90;;;;;;4213235;28;20058;-90
2022/12/27 06:50:40;;;;;;;8.80;8.13;;;10.70;99.90;;;;;;4230388;28;20369;-90
2022/12/27 06:53:00;;;;;;;9.15;8.27;;;10.70;99.90;;;;;;4224754;28;20040;-91
2022/12/27 06:55:21;;;;;;;7.53;7.15;;;10.60;99.90;;;;;;4219689;28;20081;-91
2022/12/27 06:57:41;;;;;;;7.05;6.75;;;10.60;99.90;;;;;;4228678;28;20054;-90
2022/12/27 07:00:02;;;;;;;6.88;6.47;;;10.70;99.90;;;;;;4222711;28;20043;-90
2022/12/27 07:02:22;;;;;;;7.82;7.30;;;10.70;99.90;;;;;;4223650;28;20449;-90
2022/12/27 07:04:42;;;;;;;6.82;6.47;;;10.70;99.90;;;;;;4222962;28;20055;-88
2022/12/27 07:07:02;;;;;;;9.38;8.68;;;10.70;99.90;;;;;;4229131;28;20050;-88
2022/12/27 07:09:23;;;;;;;6.70;6.50;;;10.70;99.90;;;;;;4225658;28;20110;-88
2022/12/27 07:11:44;;;;;;;8.88;7.97;;;10.70;99.90;;;;;;4230928;28;20082;-87
2022/12/27 07:14:07;;;;;;;9.50;8.02;;;10.70;99.90;;;;;;4230344;28;20399;-88
2022/12/27 07:16:29;;;;;;;8.52;7.82;;;10.70;99.90;;;;;;4226890;28;20038;-88
2022/12/27 07:18:49;;;;;;;8.00;7.50;;;10.60;99.90;;;;;;4223159;28;20090;-88
2022/12/27 07:21:13;;;;;;;8.07;7.55;;;10.60;99.90;;;;;;4230838;28;20121;-87
2022/12/27 07:23:34;;;;;;;8.25;7.75;;;10.60;99.90;;;;;;4218194;28;20042;-87
2022/12/27 07:25:54;;;;;;;9.70;8.93;;;10.60;99.90;;;;;;4232712;28;20087;-88
2022/12/27 07:28:13;;;;;;;8.00;7.57;;;10.60;99.90;;;;;;4225541;28;20043;-87
2022/12/27 07:30:33;;;;;;;9.65;8.68;;;10.60;99.90;;;;;;4212274;28;20070;-87
2022/12/27 07:32:54;;;;;;;8.98;8.43;;;10.60;99.90;;;;;;4228069;28;20081;-87
2022/12/27 07:35:13;;;;;;;11.27;10.45;;;10.60;99.90;;;;;;4213965;28;20378;-88
2022/12/27 07:37:33;;;;;;;9.70;9.20;;;10.60;99.90;;;;;;4230519;28;20374;-88
2022/12/27 07:39:53;;;;;;;10.82;9.88;;;10.60;99.90;;;;;;4229773;28;20078;-88
2022/12/27 07:42:14;;;;;;;11.82;10.95;;;10.60;99.90;;;;;;4221171;28;20109;-87
2022/12/27 07:44:33;;;;;;;11.68;10.90;;;10.50;99.90;;;;;;4229278;28;20082;-88
2022/12/27 07:46:53;;;;;;;10.68;9.73;;;10.50;99.90;;;;;;4225633;28;20070;-87
2022/12/27 07:49:13;;;;;;;11.13;10.10;;;10.50;99.90;;;;;;4230754;28;20223;-87
2022/12/27 07:51:37;;;;;;;12.18;9.82;;;10.50;99.90;;;;;;4222101;28;20059;-86
2022/12/27 07:53:57;;;;;;;10.98;9.80;;;10.50;99.90;;;;;;4226441;28;20051;-86
2022/12/27 07:56:20;;;;;;;11.10;10.23;;;10.60;99.90;;;;;;4220554;28;20070;-86
2022/12/27 07:58:47;;;;;;;10.30;9.48;;;10.50;99.90;;;;;;4209441;28;20054;-86
2022/12/27 08:01:09;;;;;;;11.13;10.45;;;10.60;99.90;;;;;;4228874;28;20115;-86
2022/12/27 08:03:30;;;;;;;10.15;9.50;;;10.60;99.90;;;;;;4214066;28;20370;-86
2022/12/27 08:05:53;;;;;;;14.02;10.02;;;10.50;99.90;;;;;;4216892;28;20406;-86
2022/12/27 08:08:18;;;;;;;10.27;9.60;;;10.60;99.90;;;;;;4233513;28;20097;-86
2022/12/27 08:10:38;;;;;;;10.82;9.98;;;10.60;99.90;;;;;;4222247;28;20298;-86
2022/12/27 08:12:59;;;;;;;9.52;9.02;;;10.50;99.90;;;;;;4216523;28;20461;-86
2022/12/27 08:15:18;;;;;;;10.18;9.45;;;10.60;99.90;;;;;;4230436;28;20123;-86
2022/12/27 08:17:38;;;;;;;11.10;10.38;;;10.50;99.90;;;;;;4232510;28;20059;-86
2022/12/27 08:19:59;;;;;;;10.13;9.43;;;10.50;99.90;;;;;;4233626;28;20056;-86
2022/12/27 08:22:20;;;;;;;9.60;9.07;;;10.50;99.90;;;;;;4231363;28;20078;-86
2022/12/27 08:24:40;;;;;;;11.45;10.52;;;10.60;99.90;;;;;;4213883;28;20098;-85
2022/12/27 08:27:00;;;;;;;10.88;10.05;;;10.60;99.90;;;;;;4226470;28;20054;-85
2022/12/27 08:29:20;;;;;;;12.02;11.05;;;10.60;99.90;;;;;;4228649;28;20051;-86
2022/12/27 08:31:39;;;;;;;11.85;9.93;;;10.60;99.90;;;;;;4228018;28;20104;-85
2022/12/27 08:34:00;;;;;;;10.02;9.43;;;10.60;99.90;;;;;;4210669;28;20094;-86
2022/12/27 08:36:20;;;;;;;10.65;9.90;;;10.70;99.90;;;;;;4232685;28;20059;-85
2022/12/27 08:39:00;;;;;;;12.13;10.80;;;10.60;99.90;;;;;;4224681;28;20046;-86
2022/12/27 08:41:20;;;;;;;10.85;9.95;;;10.70;99.90;;;;;;4217192;28;20051;-85
2022/12/27 08:43:40;;;;;;;11.30;10.27;;;10.70;99.90;;;;;;4224467;28;20047;-86
2022/12/27 08:46:04;;;;;;;11.10;10.00;;;10.70;99.90;;;;;;4231625;28;20077;-86
2022/12/27 08:48:24;;;;;;;11.80;9.45;;;10.70;99.90;;;;;;4215759;28;20055;-86
2022/12/27 08:50:44;;;;;;;10.32;9.70;;;10.70;99.90;;;;;;4227998;28;20063;-86
2022/12/27 08:53:04;;;;;;;10.77;10.13;;;10.70;99.90;;;;;;4229097;28;20046;-86
2022/12/27 08:55:29;;;;;;;11.52;10.93;;;10.70;99.90;;;;;;4232013;28;20051;-86
2022/12/27 08:57:48;;;;;;;11.50;10.82;;;10.70;99.90;;;;;;4224419;28;20047;-87
2022/12/27 09:00:10;;;;;;;10.32;9.55;;;10.70;99.90;;;;;;4224644;28;20089;-86
2022/12/27 09:02:30;;;;;;;11.98;11.25;;;10.70;99.90;;;;;;4227304;28;20078;-87
2022/12/27 09:04:50;;;;;;;9.85;9.30;;;10.70;99.90;;;;;;4228377;28;20055;-86
2022/12/27 09:07:11;;;;;;;9.90;9.40;;;10.70;99.90;;;;;;4232642;28;20054;-86
2022/12/27 09:09:30;;;;;;;12.35;10.98;;;10.70;99.90;;;;;;4230584;28;20277;-86
2022/12/27 09:11:51;;;;;;;12.00;10.95;;;10.70;99.90;;;;;;4226138;28;20050;-86
2022/12/27 09:14:11;;;;;;;13.02;11.93;;;10.70;99.90;;;;;;4229061;28;20088;-86
2022/12/27 09:16:32;;;;;;;11.80;10.90;;;10.70;99.90;;;;;;4231307;28;20055;-86
2022/12/27 09:18:55;;;;;;;12.05;10.85;;;10.70;99.90;;;;;;4229972;28;20044;-86
2022/12/27 09:21:16;;;;;;;16.55;12.90;;;10.70;99.90;;;;;;4228493;28;20073;-87
2022/12/27 09:23:36;;;;;;;13.23;12.23;;;10.80;99.90;;;;;;4230886;28;20460;-87
2022/12/27 09:25:56;;;;;;;11.73;10.90;;;10.80;99.90;;;;;;4220140;28;20091;-86
2022/12/27 09:28:17;;;;;;;13.00;12.00;;;10.90;99.90;;;;;;4223134;28;20047;-86
2022/12/27 09:30:37;;;;;;;13.02;11.85;;;10.80;99.90;;;;;;4230333;28;20086;-87
2022/12/27 09:32:57;;;;;;;11.27;10.40;;;10.90;99.90;;;;;;4212451;28;20116;-87
2022/12/27 09:35:17;;;;;;;13.23;12.07;;;10.80;99.90;;;;;;4223691;28;20047;-87
2022/12/27 09:37:37;;;;;;;11.43;10.52;;;10.80;99.90;;;;;;4226982;28;20043;-87
2022/12/27 09:39:57;;;;;;;9.45;8.82;;;10.80;99.90;;;;;;4215840;28;20365;-86
2022/12/27 09:42:44;;;;;;;10.27;9.88;;;10.80;99.90;;;;;;4215294;28;20239;-86
2022/12/27 09:45:27;;;;;;;10.60;9.65;;;10.80;99.90;;;;;;4225377;28;20075;-87
2022/12/27 09:48:28;;;;;;;12.02;10.95;;;10.80;99.90;;;;;;4220981;28;20116;-86
2022/12/27 09:50:56;;;;;;;12.18;11.10;;;10.80;99.90;;;;;;4171998;28;20113;-87
2022/12/27 09:53:29;;;;;;;11.27;10.50;;;10.80;99.90;;;;;;4171140;28;20458;-87
2022/12/27 09:55:52;;;;;;;12.07;10.75;;;10.80;99.90;;;;;;4170815;28;20091;-87
2022/12/27 09:58:43;;;;;;;12.60;11.77;;;10.90;99.90;;;;;;4157852;28;20124;-86
2022/12/27 10:01:34;;;;;;;13.23;11.13;;;11.00;99.90;;;;;;4171737;28;20109;-86
2022/12/27 10:03:54;;;;;;;13.85;12.63;;;11.00;99.90;;;;;;4171506;28;20087;-86
2022/12/27 10:06:48;;;;;;;12.90;11.50;;;10.90;99.90;;;;;;4157897;28;20399;-86
2022/12/27 10:09:27;;;;;;;;;;;10.90;99.90;;;;;;4170385;28;20068;-87
2022/12/27 10:12:10;;;;;;;13.15;12.15;;;10.90;99.90;;;;;;4171866;28;19924;-87
2022/12/27 10:14:51;;;;;;;12.35;11.45;;;10.90;99.90;;;;;;4146580;28;20196;-87
2022/12/27 10:17:22;;;;;;;11.27;10.30;;;11.00;99.90;;;;;;4157794;28;20064;-87
2022/12/27 10:20:02;;;;;;;10.00;9.32;;;11.10;99.90;;;;;;4156429;28;20064;-87
2022/12/27 10:22:34;;;;;;;10.52;9.48;;;11.20;99.90;;;;;;4210420;28;20129;-87
2022/12/27 10:24:57;;;;;;;9.63;9.02;;;11.50;99.90;;;;;;4230179;28;20430;-87
2022/12/27 10:27:26;;;;;;;11.23;10.43;;;11.30;99.90;;;;;;4230222;28;20035;-86
2022/12/27 10:29:47;;;;;;;10.50;9.52;;;11.40;99.90;;;;;;4230082;28;20043;-86
2022/12/27 10:32:13;;;;;;;10.32;9.80;;;11.50;99.90;;;;;;4230481;28;20243;-87
2022/12/27 10:34:33;;;;;;;10.93;10.27;;;11.50;99.90;;;;;;4231138;28;20038;-87
2022/12/27 10:36:55;;;;;;;11.70;10.95;;;11.40;99.90;;;;;;4229698;28;20046;-87
2022/12/27 10:39:25;;;;;;;11.77;11.02;;;11.40;99.90;;;;;;4240834;28;20058;-87
2022/12/27 10:42:09;;;;;;;9.55;8.95;;;11.60;99.90;;;;;;4238134;28;20034;-86
2022/12/27 10:44:29;;;;;;;9.63;9.25;;;11.70;99.90;;;;;;4223772;28;20077;-86
2022/12/27 10:46:52;;;;;;;10.20;9.50;;;11.70;99.90;;;;;;4213149;28;20043;-86
2022/12/27 10:49:28;;;;;;;8.85;8.55;;;11.70;99.90;;;;;;4228398;28;20103;-86
2022/12/27 10:51:50;;;;;;;8.55;8.07;;;11.70;99.90;;;;;;4218967;28;20086;-86
2022/12/27 10:54:12;;;;;;;11.63;10.73;;;11.70;99.90;;;;;;4217755;28;20293;-86
2022/12/27 10:56:40;;;;;;;11.18;10.13;;;12.10;99.90;;;;;;4214602;28;20043;-86
2022/12/27 10:59:11;;;;;;;10.18;9.57;;;12.00;99.90;;;;;;4228775;28;20039;-86
2022/12/27 11:01:32;;;;;;;11.73;10.55;;;11.70;99.90;;;;;;4228416;28;20062;-87
2022/12/27 11:04:15;;;;;;;12.45;11.48;;;11.60;99.90;;;;;;4226766;28;20134;-86
2022/12/27 11:06:42;;;;;;;11.35;10.45;;;11.90;99.90;;;;;;4229664;28;20046;-87
2022/12/27 11:09:23;;;;;;;10.23;9.82;;;11.80;99.90;;;;;;4220852;28;20281;-87
2022/12/27 11:11:43;;;;;;;12.40;11.27;;;11.70;99.90;;;;;;4212511;28;20077;-87
2022/12/27 11:14:12;;;;;;;12.30;11.50;;;11.70;99.90;;;;;;4229367;28;20050;-87
2022/12/27 11:16:34;;;;;;;12.52;11.60;;;11.70;99.90;;;;;;4213119;28;20036;-87
2022/12/27 11:18:57;;;;;;;12.60;11.73;;;11.50;99.90;;;;;;4231915;28;20042;-86
2022/12/27 11:21:17;;;;;;;10.83;10.33;;;11.40;99.90;;;;;;4209538;28;20099;-86
2022/12/27 11:23:51;;;;;;;12.45;11.60;;;11.40;99.90;;;;;;4213304;28;20277;-87
2022/12/27 11:26:24;;;;;;;13.75;12.73;;;11.40;99.90;;;;;;4229460;28;20046;-87
2022/12/27 11:28:53;;;;;;;13.45;12.75;;;11.40;99.90;;;;;;4213333;28;20074;-87
2022/12/27 11:31:15;;;;;;;11.60;10.95;;;11.40;99.90;;;;;;4230613;28;20381;-87
2022/12/27 11:33:41;;;;;;;13.10;12.20;;;11.50;99.90;;;;;;4221431;28;20039;-87
2022/12/27 11:36:02;;;;;;;13.35;12.55;;;11.40;99.90;;;;;;4229933;28;20059;-87
2022/12/27 11:38:25;;;;;;;13.48;11.25;;;11.40;99.90;;;;;;4222324;28;20055;-87
2022/12/27 11:41:05;;;;;;;14.02;13.02;;;11.40;99.90;;;;;;4223620;28;20055;-87
2022/12/27 11:43:32;;;;;;;13.02;12.25;;;11.30;99.90;;;;;;4229949;28;20124;-87
2022/12/27 11:45:54;;;;;;;14.32;13.32;;;11.40;99.90;;;;;;4228224;28;20419;-87
2022/12/27 11:48:17;;;;;;;15.48;13.93;;;11.70;99.90;;;;;;4218818;28;20243;-87
2022/12/27 11:50:47;;;;;;;;;;;11.50;99.90;;;;;;4223249;28;20051;-87
2022/12/27 11:53:47;;;;;;;15.48;14.02;;;11.50;99.90;;;;;;4228159;28;19987;-87
2022/12/27 11:56:32;;;;;;;14.30;13.38;;;11.40;99.90;;;;;;4232158;28;20330;-86
2022/12/27 11:59:13;;;;;;;13.82;12.85;;;11.50;99.90;;;;;;4238749;28;20038;-87
2022/12/27 12:01:57;;;;;;;16.40;15.10;;;11.40;99.90;;;;;;4234154;28;20038;-87
2022/12/27 12:04:35;;;;;;;15.32;14.35;;;11.30;99.90;;;;;;4231715;28;20043;-86
2022/12/27 12:07:16;;;;;;;15.10;13.75;;;11.40;99.90;;;;;;4231389;28;20034;-87
2022/12/27 12:09:45;;;;;;;19.45;17.95;;;11.50;99.90;;;;;;4233792;28;20081;-88
2022/12/27 12:12:22;;;;;;;19.55;17.83;;;11.50;99.90;;;;;;4232411;28;20077;-87
2022/12/27 12:15:10;;;;;;;15.18;13.95;;;11.50;99.90;;;;;;4232082;28;20039;-88
2022/12/27 12:17:40;;;;;;;18.67;16.90;;;11.80;99.90;;;;;;4230457;28;20050;-87
2022/12/27 12:20:03;;;;;;;14.48;13.00;;;11.90;99.90;;;;;;4217487;28;20051;-87
2022/12/27 12:22:47;;;;;;;13.38;12.50;;;12.20;99.90;;;;;;4231106;28;20081;-87
2022/12/27 12:25:10;;;;;;;12.65;11.75;;;12.00;99.90;;;;;;4233949;28;20035;-87
2022/12/27 12:27:56;;;;;;;13.95;12.88;;;12.00;99.90;;;;;;4220930;28;20074;-87
2022/12/27 12:30:35;;;;;;;11.82;11.20;;;12.00;99.90;;;;;;4209291;28;20116;-87
2022/12/27 12:33:13;;;;;;;13.63;12.57;;;11.80;99.90;;;;;;4223481;28;20370;-87
2022/12/27 12:35:42;;;;;;;14.52;13.27;;;11.80;99.90;;;;;;4219799;28;20086;-87
2022/12/27 12:38:25;;;;;;;13.77;12.68;;;11.70;99.90;;;;;;4214012;28;20048;-87
2022/12/27 12:41:14;;;;;;;15.32;13.82;;;11.60;99.90;;;;;;4229851;28;20043;-87
2022/12/27 12:43:45;;;;;;;14.73;13.48;;;11.60;99.90;;;;;;4229490;28;20124;-82
2022/12/27 12:46:56;;;;;;;13.43;12.15;;;11.80;99.90;;;;;;4214288;28;20394;-82
2022/12/27 12:49:49;;;;;;;14.15;12.82;;;11.70;99.90;;;;;;4223169;28;20106;-82
2022/12/27 12:52:28;;;;;;;15.95;14.57;;;11.60;99.90;;;;;;4224723;28;20115;-82
2022/12/27 12:55:29;;;;;;;15.55;12.57;;;11.60;99.90;;;;;;4230729;28;20073;-82
2022/12/27 12:58:22;;;;;;;12.23;11.27;;;11.70;99.90;;;;;;4215711;28;20043;-82
2022/12/27 13:01:12;;;;;;;12.23;11.43;;;11.70;99.90;;;;;;4231248;28;20083;-82
2022/12/27 13:03:45;;;;;;;12.88;11.80;;;11.70;99.90;;;;;;4235516;28;20120;-82
2022/12/27 13:06:39;;;;;;;12.05;11.13;;;11.80;99.90;;;;;;4225432;28;20067;-81
2022/12/27 13:09:37;;;;;;;12.57;11.57;;;11.70;99.90;;;;;;4230643;28;20055;-82
2022/12/27 13:12:37;;;;;;;13.63;12.32;;;11.70;99.90;;;;;;4215375;28;20047;-82
2022/12/27 13:15:19;;;;;;;15.73;14.15;;;11.70;99.90;;;;;;4229827;28;20046;-82
2022/12/27 13:17:50;;;;;;;15.07;13.68;;;11.60;99.90;;;;;;4232392;28;20420;-82
2022/12/27 13:20:37;;;;;;;12.63;11.63;;;11.60;99.90;;;;;;4229632;28;20043;-82
2022/12/27 13:23:03;;;;;;;14.20;12.10;;;11.50;99.90;;;;;;4231781;28;20051;-82
2022/12/27 13:25:46;;;;;;;12.50;11.60;;;11.50;99.90;;;;;;4216292;28;20051;-82
2022/12/27 13:28:35;;;;;;;14.77;12.73;;;11.60;99.90;;;;;;4227665;28;20477;-82
2022/12/27 13:30:58;;;;;;;18.77;14.07;;;11.60;99.90;;;;;;4229487;28;20039;-81
2022/12/27 13:33:18;;;;;;;;;;;11.70;99.90;;;;;;4224254;28;20380;-81
2022/12/27 13:35:59;;;;;;;13.32;11.98;;;11.70;99.90;;;;;;4211309;28;19984;-82
2022/12/27 13:38:56;;;;;;;14.73;13.32;;;11.70;99.90;;;;;;4229325;28;20070;-82
2022/12/27 13:41:22;;;;;;;13.40;12.50;;;11.80;99.90;;;;;;4233680;28;20288;-82
2022/12/27 13:44:18;;;;;;;11.35;10.73;;;11.80;99.90;;;;;;4228459;28;20035;-82
2022/12/27 13:46:52;;;;;;;14.23;12.45;;;11.70;99.90;;;;;;4228795;28;20071;-81
2022/12/27 13:49:31;;;;;;;14.48;13.07;;;11.80;99.90;;;;;;4226674;28;20270;-82
2022/12/27 13:52:18;;;;;;;15.48;12.27;;;11.90;99.90;;;;;;4215244;28;20052;-82
2022/12/27 13:55:01;;;;;;;11.43;10.65;;;11.80;99.90;;;;;;4213636;28;20401;-83
2022/12/27 13:57:56;;;;;;;11.88;10.77;;;11.80;99.90;;;;;;4222868;28;20047;-79
2022/12/27 14:00:19;;;;;;;12.20;11.32;;;11.80;99.90;;;;;;4212469;28;20394;-80
2022/12/27 14:03:15;;;;;;;11.43;10.80;;;11.90;99.90;;;;;;4229726;28;20047;-79
2022/12/27 14:06:10;;;;;;;13.15;12.10;;;11.90;99.90;;;;;;4228629;28;20074;-80
2022/12/27 14:08:40;;;;;;;13.85;12.60;;;11.90;99.90;;;;;;4232663;28;20085;-79
2022/12/27 14:11:00;;;;;;;12.73;11.65;;;11.90;99.90;;;;;;4225506;28;20397;-79
2022/12/27 14:13:27;;;;;;;13.80;12.50;;;11.90;99.90;;;;;;4228691;28;20051;-79
2022/12/27 14:16:06;;;;;;;11.57;10.80;;;11.90;99.90;;;;;;4231814;28;20086;-79
2022/12/27 14:18:56;;;;;;;14.48;13.07;;;11.90;99.90;;;;;;4219343;28;20099;-79